Time;durP1;ratioP1;P1;durP2;ratioP2;P2;SDS_P1;SDS_P2;PMS_P1;PMS_P2;Temp;Humidity;BMP_temperature;BMP_pressure;BME280_temperature;BME280_humidity;BME280_pressure;Samples;Min_cycle;Max_cycle;Signal;HPM_P1;HPM_P2
2022/11/05 00:11:01;;;;;;;31.33;21.23;;;;;;;11.37;76.72;96727.63;4967075;28;20192;-75
2022/11/05 00:19:08;;;;;;;32.83;20.23;;;;;;;11.51;75.80;96733.84;4968387;28;20204;-75
2022/11/05 00:27:10;;;;;;;33.40;19.87;;;;;;;11.36;76.04;96740.69;4950932;28;20195;-75
2022/11/05 00:29:37;;;;;;;30.43;19.67;;;;;;;11.27;76.34;96726.47;4951431;28;20213;-76
2022/11/05 00:32:04;;;;;;;31.90;20.23;;;;;;;11.13;76.68;96721.19;4968000;28;20195;-76
2022/11/05 00:34:31;;;;;;;30.63;19.77;;;;;;;11.05;76.40;96725.94;4968717;28;20213;-75
2022/11/05 00:36:58;;;;;;;33.70;20.77;;;;;;;11.15;76.65;96734.91;4966714;28;20232;-76
2022/11/05 00:39:25;;;;;;;30.43;20.23;;;;;;;11.10;76.12;96739.50;4968385;28;20606;-76
2022/11/05 00:50:09;;;;;;;32.83;19.30;;;;;;;10.78;77.23;96735.13;4967998;28;20200;-75
2022/11/05 00:52:55;;;;;;;29.33;19.77;;;;;;;10.74;77.58;96740.56;4968005;28;20276;-75
2022/11/05 00:55:34;;;;;;;34.83;20.67;;;;;;;10.39;78.69;96740.59;4968260;28;20193;-75
2022/11/05 00:58:02;;;;;;;35.07;21.03;;;;;;;10.21;80.60;96736.31;4934549;28;20319;-75
2022/11/05 01:00:31;;;;;;;36.57;21.63;;;;;;;10.14;81.32;96731.53;4968064;28;20212;-75
2022/11/05 01:03:04;;;;;;;35.50;21.87;;;;;;;10.17;82.04;96723.59;4967819;28;20743;-75
2022/11/05 01:05:33;;;;;;;36.80;22.77;;;;;;;10.15;82.46;96730.59;4967882;28;20189;-76
2022/11/05 01:08:00;;;;;;;37.53;22.07;;;;;;;10.16;83.25;96727.94;4967957;28;20188;-76
2022/11/05 01:10:27;;;;;;;38.57;22.80;;;;;;;10.18;83.24;96725.28;4950444;28;20287;-75
2022/11/05 01:12:54;;;;;;;42.57;23.20;;;;;;;10.23;83.35;96724.16;4968238;28;20747;-76
2022/11/05 01:15:21;;;;;;;34.90;20.80;;;;;;;10.30;82.64;96719.50;4966417;28;20207;-76
2022/11/05 01:17:50;;;;;;;36.40;21.50;;;;;;;10.35;82.74;96714.91;4968011;28;20735;-76
2022/11/05 01:20:17;;;;;;;40.27;22.47;;;;;;;10.25;83.07;96711.13;4967931;28;20226;-75
2022/11/05 01:22:44;;;;;;;34.43;21.03;;;;;;;10.21;83.17;96699.25;4967756;28;20248;-75
2022/11/05 01:25:11;;;;;;;36.33;21.23;;;;;;;10.35;83.13;96704.56;4967757;28;20190;-75
2022/11/05 01:27:38;;;;;;;36.20;22.20;;;;;;;10.31;82.80;96716.84;4967689;28;20193;-75
2022/11/05 01:30:07;;;;;;;38.93;20.77;;;;;;;10.25;82.41;96683.50;4967990;28;20193;-75
2022/11/05 01:32:35;;;;;;;35.33;21.33;;;;;;;10.40;82.44;96718.97;4967580;28;20567;-75
2022/11/05 01:35:08;;;;;;;35.07;21.17;;;;;;;10.06;82.97;96679.25;4967884;28;20189;-75
2022/11/05 01:37:35;;;;;;;33.83;20.50;;;;;;;10.30;82.96;96711.75;4967569;28;20255;-76
2022/11/05 01:40:03;;;;;;;34.67;20.83;;;;;;;10.18;83.08;96684.72;4967576;28;20196;-74
2022/11/05 01:42:31;;;;;;;34.53;19.27;;;;;;;10.23;83.17;96703.44;4967610;28;20182;-75
2022/11/05 01:45:15;;;;;;;32.00;20.00;;;;;;;10.37;82.87;96720.84;4950461;28;20289;-75
2022/11/05 01:47:48;;;;;;;32.10;20.10;;;;;;;10.41;82.38;96712.03;4967801;28;20252;-75
2022/11/05 01:50:27;;;;;;;31.83;19.93;;;;;;;10.42;81.96;96709.38;4967457;28;20227;-75
2022/11/05 01:53:05;;;;;;;31.30;19.97;;;;;;;10.42;82.24;96708.53;4969681;28;20191;-74
2022/11/05 01:55:36;;;;;;;33.40;21.67;;;;;;;10.40;82.17;96702.59;4954062;28;20680;-74
2022/11/05 01:58:08;;;;;;;39.30;21.43;;;;;;;10.31;82.76;96705.63;4970714;28;20307;-74
2022/11/05 02:00:35;;;;;;;37.27;21.77;;;;;;;10.14;82.97;96685.78;4970145;28;20201;-74
2022/11/05 02:03:02;;;;;;;37.03;21.90;;;;;;;10.16;83.41;96686.53;4970948;28;20199;-73
2022/11/05 02:05:31;;;;;;;33.03;20.00;;;;;;;10.08;84.01;96677.44;4971199;28;20185;-73
2022/11/05 02:07:58;;;;;;;42.07;22.83;;;;;;;10.04;83.80;96671.59;4937807;28;20189;-74
2022/11/05 02:10:26;;;;;;;36.70;21.70;;;;;;;10.03;84.53;96682.03;4953422;28;20204;-75
2022/11/05 02:12:53;;;;;;;36.30;21.27;;;;;;;9.97;84.54;96677.16;4970690;28;20199;-75
2022/11/05 02:15:58;;;;;;;39.43;21.47;;;;;;;9.89;84.43;96669.78;4969510;28;20673;-75
2022/11/05 02:18:34;;;;;;;36.00;20.63;;;;;;;9.77;84.91;96668.59;4971063;28;20331;-75
2022/11/05 02:21:10;;;;;;;40.53;21.07;;;;;;;9.90;84.77;96663.69;4970387;28;20341;-75
2022/11/05 02:23:59;;;;;;;30.73;20.10;;;;;;;10.05;84.05;96664.69;4970710;28;20274;-75
2022/11/05 02:27:03;;;;;;;33.30;19.87;;;;;;;10.22;83.52;96655.16;4970904;28;20196;-75
2022/11/05 02:30:11;;;;;;;32.47;19.37;;;;;;;10.25;82.33;96649.00;4970465;28;20628;-75
2022/11/05 02:32:40;;;;;;;32.80;19.07;;;;;;;10.55;81.44;96663.00;4970327;28;20244;-75
2022/11/05 02:35:28;;;;;;;36.77;20.10;;;;;;;10.59;80.16;96660.16;4970692;28;20211;-76
2022/11/05 02:38:08;;;;;;;33.63;21.07;;;;;;;10.67;80.00;96659.78;4952907;28;20216;-76
2022/11/05 02:40:48;;;;;;;32.03;20.27;;;;;;;10.77;79.62;96658.38;4970264;28;20227;-75
2022/11/05 02:43:28;;;;;;;35.07;19.83;;;;;;;10.78;78.97;96657.44;4970477;28;20196;-75
2022/11/05 02:46:16;;;;;;;30.47;20.87;;;;;;;10.85;78.41;96656.22;4968836;28;20232;-75
2022/11/05 02:49:16;;;;;;;30.53;21.73;;;;;;;10.82;78.51;96668.50;4970301;28;20190;-75
2022/11/05 02:51:52;;;;;;;36.70;21.20;;;;;;;10.73;78.30;96672.41;4970130;28;20206;-75
2022/11/05 02:54:34;;;;;;;34.20;21.63;;;;;;;10.54;78.12;96663.91;4970035;28;20194;-75
2022/11/05 02:57:03;;;;;;;32.83;21.13;;;;;;;10.51;78.88;96677.00;4970225;28;20200;-75
2022/11/05 02:59:30;;;;;;;32.40;20.60;;;;;;;10.52;78.02;96668.31;4969741;28;20741;-76
2022/11/05 03:02:00;;;;;;;33.37;20.90;;;;;;;10.44;77.35;96649.75;4969905;28;20231;-75
2022/11/05 03:04:28;;;;;;;31.50;20.37;;;;;;;10.52;77.58;96668.31;4969170;28;20185;-75
2022/11/05 03:07:21;;;;;;;29.60;19.47;;;;;;;10.44;77.35;96670.47;4969737;28;20276;-76
2022/11/05 03:09:54;;;;;;;30.30;19.67;;;;;;;10.24;76.36;96689.56;4970116;28;20185;-76
2022/11/05 03:12:56;;;;;;;29.30;18.53;;;;;;;10.08;76.88;96680.03;4952281;28;20190;-75
2022/11/05 03:15:43;;;;;;;31.60;19.57;;;;;;;9.63;77.89;96668.44;4968401;28;20188;-75
2022/11/05 03:18:31;;;;;;;28.40;18.83;;;;;;;9.56;78.31;96674.81;4969678;28;20230;-75
2022/11/05 03:21:13;;;;;;;34.73;20.87;;;;;;;9.52;78.81;96681.03;4969275;28;20303;-76
2022/11/05 03:24:01;;;;;;;32.20;20.57;;;;;;;9.61;78.75;96684.94;4968401;28;20855;-75
2022/11/05 03:26:32;;;;;;;31.77;20.60;;;;;;;9.25;80.06;96672.00;4969424;28;20217;-76
2022/11/05 03:29:08;;;;;;;33.63;20.27;;;;;;;9.19;80.73;96671.44;4969185;28;20280;-76
2022/11/05 03:31:38;;;;;;;31.43;20.43;;;;;;;9.00;82.36;96682.59;4968521;28;20196;-75
2022/11/05 03:34:07;;;;;;;36.03;22.90;;;;;;;9.02;82.49;96673.06;4969159;28;20696;-76
2022/11/05 03:36:40;;;;;;;37.63;23.07;;;;;;;9.06;82.24;96673.75;4969286;28;20184;-75
2022/11/05 03:39:14;;;;;;;34.07;22.57;;;;;;;8.97;82.89;96669.84;4951790;28;20230;-75
2022/11/05 03:41:45;;;;;;;36.00;23.00;;;;;;;9.01;83.45;96686.88;4969244;28;20191;-75
2022/11/05 03:44:17;;;;;;;37.20;22.60;;;;;;;8.74;84.33;96680.34;4969541;28;20203;-75
2022/11/05 03:46:48;;;;;;;45.10;24.63;;;;;;;8.61;85.01;96676.66;4968932;28;20618;-75
2022/11/05 03:49:23;;;;;;;40.63;24.47;;;;;;;8.63;85.54;96685.16;4967937;28;20680;-76
2022/11/05 03:52:15;;;;;;;41.90;25.10;;;;;;;8.55;85.73;96670.91;4968904;28;20299;-74
2022/11/05 03:54:43;;;;;;;45.67;25.53;;;;;;;8.63;86.74;96679.16;4967529;28;20192;-74
2022/11/05 03:57:16;;;;;;;43.57;25.70;;;;;;;8.63;87.37;96674.00;4969098;28;20180;-74
2022/11/05 03:59:46;;;;;;;40.93;25.47;;;;;;;8.74;87.19;96672.59;4968439;28;20230;-74
2022/11/05 04:02:15;;;;;;;43.73;26.07;;;;;;;8.75;86.92;96671.72;4968929;28;20275;-75
2022/11/05 04:04:42;;;;;;;40.57;28.23;;;;;;;9.16;86.27;96685.34;4968780;28;20279;-74
2022/11/05 04:17:04;;;;;;;32.77;21.70;;;;;;;9.50;81.18;96677.69;4967898;28;20193;-75
2022/11/05 04:18:17;;;;;;;41.90;24.90;;;;;;;9.50;81.37;96674.28;4968494;28;20263;-75
2022/11/05 04:26:14;;;;;;;40.80;24.17;;;;;;;9.65;80.88;96664.03;4968458;28;20760;-75
2022/11/05 04:31:33;;;;;;;31.40;21.13;;;;;;;9.64;80.22;96672.69;4968488;28;20216;-75
2022/11/05 04:34:00;;;;;;;35.37;21.93;;;;;;;9.66;79.46;96668.31;4968124;28;20661;-75
2022/11/05 04:36:27;;;;;;;37.30;21.87;;;;;;;9.55;78.46;96673.13;4968561;28;20196;-75
2022/11/05 04:38:54;;;;;;;32.20;21.07;;;;;;;9.08;78.25;96648.69;4967987;28;20289;-75
2022/11/05 04:41:22;;;;;;;34.93;21.13;;;;;;;8.80;80.03;96684.41;4968492;28;20193;-75
2022/11/05 04:43:48;;;;;;;33.87;21.40;;;;;;;8.61;80.67;96691.28;4950956;28;20191;-75
2022/11/05 04:46:15;;;;;;;36.87;21.13;;;;;;;8.60;81.26;96695.59;4968139;28;20208;-75
2022/11/05 04:48:42;;;;;;;38.13;22.27;;;;;;;8.60;81.42;96692.19;4968501;28;20189;-75
2022/11/05 04:51:09;;;;;;;44.00;23.97;;;;;;;8.55;83.49;96691.56;4968049;28;20251;-74
2022/11/05 04:53:36;;;;;;;37.73;24.17;;;;;;;8.39;86.11;96693.94;4967190;28;20664;-75
2022/11/05 04:56:24;;;;;;;41.80;24.63;;;;;;;8.37;87.15;96693.19;4967888;28;20188;-75
2022/11/05 04:58:51;;;;;;;50.20;27.37;;;;;;;8.38;87.11;96681.13;4967385;28;20228;-75
2022/11/05 05:01:21;;;;;;;47.33;27.03;;;;;;;8.48;88.03;96684.97;4967916;28;20185;-75
2022/11/05 05:03:49;;;;;;;40.67;25.07;;;;;;;8.50;87.27;96690.91;4967317;28;20204;-75
2022/11/05 05:06:17;;;;;;;44.50;26.97;;;;;;;8.53;86.88;96683.88;4966698;28;20203;-75
2022/11/05 05:08:49;;;;;;;38.60;24.67;;;;;;;8.74;85.92;96684.66;4966459;28;20203;-76
2022/11/05 05:11:18;;;;;;;35.00;22.07;;;;;;;8.98;85.11;96693.94;4968040;28;20287;-75
2022/11/05 05:13:46;;;;;;;39.13;22.37;;;;;;;9.02;83.77;96687.72;4967505;28;20201;-75
2022/11/05 05:16:21;;;;;;;39.60;20.37;;;;;;;9.00;83.64;96705.03;4966313;28;20181;-75
2022/11/05 05:18:49;;;;;;;31.73;20.37;;;;;;;9.00;83.91;96705.03;4967637;28;20279;-75
2022/11/05 05:24:04;;;;;;;31.67;19.70;;;;;;;8.81;83.59;96719.66;4967425;28;20188;-74
2022/11/05 05:26:31;;;;;;;31.93;17.97;;;;;;;8.58;84.38;96720.66;4965135;28;20215;-75
2022/11/05 05:28:58;;;;;;;35.07;19.23;;;;;;;8.70;83.69;96724.44;4971761;28;20200;-74
2022/11/05 05:31:25;;;;;;;33.13;19.73;;;;;;;8.64;83.85;96720.38;4971244;28;20201;-75
2022/11/05 05:33:53;;;;;;;31.07;19.47;;;;;;;8.52;84.81;96717.50;4967126;28;20774;-75
2022/11/05 05:36:21;;;;;;;35.23;20.00;;;;;;;8.45;86.02;96721.25;4971172;28;20196;-75
2022/11/05 05:38:48;;;;;;;46.47;21.63;;;;;;;8.49;86.91;96725.38;4970825;28;20321;-75
2022/11/05 05:41:16;;;;;;;36.70;22.73;;;;;;;8.51;86.71;96723.56;4963215;28;20193;-75
2022/11/05 05:43:43;;;;;;;39.43;22.73;;;;;;;8.50;87.42;96729.63;4966551;28;20666;-75
2022/11/05 05:46:13;;;;;;;41.77;25.13;;;;;;;8.65;87.57;96724.66;4950904;29;20189;-74
2022/11/05 05:48:40;;;;;;;46.10;27.33;;;;;;;8.78;87.41;96740.41;4950384;29;20185;-75
2022/11/05 05:51:09;;;;;;;44.60;28.20;;;;;;;8.88;86.68;96732.22;4951542;28;20288;-75
2022/11/05 05:53:37;;;;;;;44.57;28.33;;;;;;;8.97;86.89;96742.16;4949844;29;20644;-75
2022/11/05 05:56:05;;;;;;;43.47;27.70;;;;;;;9.06;87.33;96740.06;4951374;28;20244;-75
2022/11/05 05:58:37;;;;;;;45.20;27.37;;;;;;;9.19;86.62;96726.50;4951864;28;20708;-74
2022/11/05 06:01:07;;;;;;;42.53;25.80;;;;;;;9.14;86.48;96731.06;4951563;28;20744;-75
2022/11/05 06:03:40;;;;;;;40.63;26.70;;;;;;;9.40;86.75;96746.22;4951410;28;20668;-75
2022/11/05 06:06:47;;;;;;;44.10;25.90;;;;;;;9.63;85.96;96745.16;4950029;28;20234;-75
2022/11/05 06:10:07;;;;;;;39.73;25.97;;;;;;;9.92;84.96;96744.63;4950856;29;20186;-76
2022/11/05 06:13:28;;;;;;;40.33;27.37;;;;;;;10.34;82.95;96744.31;4948819;29;20189;-75
2022/11/05 06:16:34;;;;;;;49.03;29.57;;;;;;;10.53;81.14;96750.28;4949830;28;20700;-76
2022/11/05 06:19:01;;;;;;;49.30;26.83;;;;;;;10.68;80.33;96746.88;4949419;29;20221;-76
2022/11/05 06:21:28;;;;;;;44.40;29.07;;;;;;;10.88;79.61;96751.88;4960312;28;20231;-75
2022/11/05 06:23:55;;;;;;;42.47;24.73;;;;;;;10.96;79.92;96749.75;4970585;28;20213;-76
2022/11/05 06:26:22;;;;;;;37.03;23.37;;;;;;;11.07;79.34;96759.53;4968736;28;20193;-76
2022/11/05 06:28:49;;;;;;;37.47;23.50;;;;;;;11.08;78.46;96762.06;4970316;28;20253;-76
2022/11/05 06:31:16;;;;;;;35.27;22.47;;;;;;;11.21;78.72;96763.09;4970067;28;20205;-76
2022/11/05 06:33:43;;;;;;;36.83;22.17;;;;;;;10.94;78.02;96717.88;4970774;28;20228;-75
2022/11/05 06:36:14;;;;;;;41.47;24.37;;;;;;;11.25;77.70;96763.78;4969683;28;20185;-75
2022/11/05 06:38:41;;;;;;;31.30;20.57;;;;;;;11.33;76.79;96762.44;4967109;28;20721;-75
2022/11/05 06:41:08;;;;;;;37.60;22.13;;;;;;;11.41;76.97;96760.28;4969981;28;20608;-75
2022/11/05 06:43:37;;;;;;;33.23;21.00;;;;;;;11.50;76.18;96760.72;4969421;28;20236;-74
2022/11/05 06:46:04;;;;;;;34.17;21.30;;;;;;;11.63;76.37;96764.31;4970061;28;20228;-74
2022/11/05 06:48:31;;;;;;;36.77;20.50;;;;;;;11.79;75.98;96762.56;4968119;28;20695;-74
2022/11/05 06:50:58;;;;;;;54.63;25.97;;;;;;;11.92;75.14;96756.63;4968514;28;20654;-76
2022/11/05 06:53:26;;;;;;;38.60;22.33;;;;;;;12.12;74.50;96769.34;4967633;28;20305;-75
2022/11/05 06:55:53;;;;;;;33.80;21.57;;;;;;;12.11;74.10;96761.63;4956336;28;20585;-75
2022/11/05 06:58:20;;;;;;;35.63;22.17;;;;;;;12.32;73.43;96757.84;4968950;28;20191;-76
2022/11/05 07:00:47;;;;;;;35.60;22.17;;;;;;;12.41;73.68;96746.06;4969189;28;21451;-75
2022/11/05 07:03:14;;;;;;;32.03;21.83;;;;;;;12.54;73.38;96750.47;4969000;28;20780;-74
2022/11/05 07:05:47;;;;;;;44.27;26.67;;;;;;;12.62;73.18;96756.06;4951260;28;20189;-75
2022/11/05 07:08:14;;;;;;;37.83;24.13;;;;;;;12.80;71.98;96749.78;4967814;28;20305;-75
2022/11/05 07:10:41;;;;;;;33.40;22.40;;;;;;;12.93;72.01;96753.31;4968983;28;20302;-75
2022/11/05 07:13:08;;;;;;;36.80;21.17;;;;;;;13.14;71.31;96750.41;4968919;28;20310;-75
2022/11/05 07:15:36;;;;;;;35.23;22.17;;;;;;;13.19;71.60;96745.78;4969051;28;20218;-76
2022/11/05 07:18:06;;;;;;;35.57;21.87;;;;;;;13.05;71.90;96731.81;4968953;28;20197;-76
2022/11/05 07:20:33;;;;;;;35.73;22.00;;;;;;;13.17;72.02;96740.63;4967648;28;20753;-75
2022/11/05 07:23:05;;;;;;;41.80;21.97;;;;;;;13.28;71.51;96742.59;4967673;28;20206;-75
2022/11/05 07:25:33;;;;;;;34.57;21.27;;;;;;;13.17;71.82;96745.03;4969208;28;20196;-75
2022/11/05 07:28:01;;;;;;;34.50;20.40;;;;;;;13.36;71.59;96740.34;4967189;28;20246;-75
2022/11/05 07:30:29;;;;;;;47.40;24.60;;;;;;;13.45;71.00;96739.78;4968661;28;20195;-76
2022/11/05 07:32:56;;;;;;;34.77;21.63;;;;;;;13.04;70.89;96691.16;4968485;28;20901;-75
2022/11/05 07:35:23;;;;;;;88.40;27.70;;;;;;;13.56;71.37;96734.78;4968678;28;20198;-75
2022/11/05 07:37:55;;;;;;;47.33;22.73;;;;;;;13.37;72.00;96722.06;4951183;28;20290;-76
2022/11/05 07:40:24;;;;;;;40.03;24.10;;;;;;;13.55;71.28;96726.13;4966715;28;20292;-76
2022/11/05 07:42:58;;;;;;;37.17;23.00;;;;;;;13.69;70.81;96722.66;4967380;28;20287;-77
2022/11/05 07:45:27;;;;;;;38.00;23.50;;;;;;;13.57;70.86;96723.41;4966514;28;20288;-77
2022/11/05 07:47:59;;;;;;;33.20;20.97;;;;;;;13.26;72.67;96724.47;4968383;28;20190;-77
2022/11/05 07:50:29;;;;;;;41.87;22.17;;;;;;;13.62;71.72;96727.41;4966624;28;20292;-75
2022/11/05 07:53:10;;;;;;;45.20;24.70;;;;;;;13.90;70.31;96731.72;4968071;28;20328;-75
2022/11/05 07:55:40;;;;;;;49.40;25.40;;;;;;;13.84;70.44;96688.69;4968596;28;20188;-75
2022/11/05 07:58:08;;;;;;;45.00;26.37;;;;;;;14.20;69.46;96719.31;4967560;28;20284;-74
2022/11/05 08:00:35;;;;;;;39.50;22.70;;;;;;;14.30;69.56;96728.22;4966447;28;20757;-75
2022/11/05 08:03:09;;;;;;;32.87;20.73;;;;;;;14.38;69.44;96727.72;4967964;28;20196;-77
2022/11/05 08:05:39;;;;;;;34.93;22.10;;;;;;;14.61;69.02;96727.88;4966675;28;20195;-77
2022/11/05 08:08:07;;;;;;;33.67;21.20;;;;;;;14.38;69.27;96733.78;4966760;28;20200;-75
2022/11/05 08:10:35;;;;;;;34.00;20.93;;;;;;;14.52;69.38;96725.88;4967635;28;20199;-75
2022/11/05 08:13:03;;;;;;;40.73;22.70;;;;;;;14.65;68.77;96726.72;4969687;28;20200;-75
2022/11/05 08:15:30;;;;;;;46.60;25.37;;;;;;;14.49;69.05;96726.06;4967268;28;20242;-76
2022/11/05 08:17:58;;;;;;;40.27;23.20;;;;;;;14.55;69.24;96724.81;4966396;28;20193;-74
2022/11/05 08:20:25;;;;;;;34.60;21.53;;;;;;;14.61;68.48;96714.03;4967544;28;20631;-74
2022/11/05 08:22:53;;;;;;;36.03;20.00;;;;;;;14.65;68.90;96721.50;4967505;28;20814;-74
2022/11/05 08:25:20;;;;;;;42.27;22.93;;;;;;;14.46;69.48;96717.63;4966500;28;20219;-74
2022/11/05 08:27:54;;;;;;;35.17;22.27;;;;;;;14.34;70.08;96721.88;4967572;28;20197;-75
2022/11/05 08:30:21;;;;;;;40.43;23.70;;;;;;;14.45;70.07;96722.00;4968062;28;20245;-74
2022/11/05 08:32:48;;;;;;;42.13;23.50;;;;;;;14.49;70.04;96725.22;4966650;28;20299;-75
2022/11/05 08:35:15;;;;;;;38.10;23.07;;;;;;;14.59;69.77;96721.06;4967574;28;20195;-75
2022/11/05 08:37:42;;;;;;;34.17;22.10;;;;;;;14.79;69.09;96717.16;4966100;28;20248;-74
2022/11/05 08:40:10;;;;;;;35.00;22.73;;;;;;;14.82;70.54;96720.38;4967387;28;20214;-74
2022/11/05 08:42:37;;;;;;;40.20;25.37;;;;;;;14.90;69.61;96719.88;4966158;28;20302;-75
2022/11/05 08:45:05;;;;;;;36.13;21.83;;;;;;;14.68;70.39;96721.31;4967025;28;20186;-76
2022/11/05 08:47:32;;;;;;;32.97;22.57;;;;;;;14.68;70.56;96704.84;4966884;28;20193;-74
2022/11/05 08:49:59;;;;;;;46.47;26.70;;;;;;;14.55;71.83;96702.22;4966751;28;20773;-76
2022/11/05 08:52:25;;;;;;;33.20;23.40;;;;;;;14.56;72.18;96710.88;4967072;28;20200;-75
2022/11/05 08:54:52;;;;;;;39.00;25.43;;;;;;;14.91;71.13;96705.88;4966945;28;20243;-75
2022/11/05 08:57:19;;;;;;;49.83;25.60;;;;;;;15.13;70.04;96701.69;4966923;28;20199;-78
2022/11/05 08:59:46;;;;;;;37.67;25.40;;;;;;;15.14;70.73;96697.31;4967264;28;20220;-76
2022/11/05 09:02:13;;;;;;;36.13;23.97;;;;;;;15.46;69.77;96704.59;4952534;28;20200;-76
2022/11/05 09:04:40;;;;;;;36.37;23.13;;;;;;;15.09;71.14;96707.22;4972308;28;20196;-77
2022/11/05 09:07:07;;;;;;;36.80;24.30;;;;;;;15.03;71.14;96682.41;4955692;28;20200;-77
2022/11/05 09:09:34;;;;;;;35.73;23.10;;;;;;;15.48;70.36;96708.91;4973528;28;20255;-74
2022/11/05 09:12:01;;;;;;;33.83;23.17;;;;;;;15.71;69.56;96705.47;4968291;28;20201;-75
2022/11/05 09:14:38;;;;;;;38.50;23.33;;;;;;;15.90;68.68;96691.00;4989012;28;20199;-77
2022/11/05 09:17:17;;;;;;;38.17;24.30;;;;;;;15.65;68.69;96698.91;4980505;28;20207;-77
2022/11/05 09:19:44;;;;;;;35.60;22.77;;;;;;;15.70;69.19;96696.81;4973059;28;20719;-76
2022/11/05 09:22:11;;;;;;;41.00;22.50;;;;;;;15.51;70.04;96693.84;4973699;28;20190;-75
2022/11/05 09:24:39;;;;;;;41.40;23.87;;;;;;;15.60;69.61;96687.94;4971172;28;20222;-77
2022/11/05 09:27:12;;;;;;;33.03;21.27;;;;;;;15.77;70.42;96690.19;4973540;28;20254;-75
2022/11/05 09:29:39;;;;;;;35.83;22.93;;;;;;;15.81;69.14;96686.44;4973186;28;20669;-76
2022/11/05 09:32:07;;;;;;;32.30;22.77;;;;;;;16.14;68.13;96676.13;4956155;28;20196;-76
2022/11/05 09:34:35;;;;;;;32.43;21.43;;;;;;;16.28;67.25;96678.56;4955976;28;20302;-77
2022/11/05 09:37:42;;;;;;;35.57;22.97;;;;;;;16.58;66.82;96664.19;4972792;28;20215;-76
2022/11/05 09:41:20;;;;;;;38.73;22.27;;;;;;;16.60;66.23;96642.22;4953774;28;20239;-75
2022/11/05 09:44:06;;;;;;;45.87;27.03;;;;;;;17.00;65.33;96672.19;4973542;28;20210;-75
2022/11/05 09:46:42;;;;;;;38.47;21.13;;;;;;;16.93;64.96;96670.19;4971702;28;20200;-77
2022/11/05 09:49:24;;;;;;;36.53;21.23;;;;;;;17.17;63.67;96663.03;4971573;28;20270;-77
2022/11/05 09:51:54;;;;;;;31.10;21.30;;;;;;;16.75;65.28;96667.22;4973134;28;20216;-77
2022/11/05 09:54:25;;;;;;;30.60;19.43;;;;;;;16.76;65.45;96658.41;4973000;28;20182;-75
2022/11/05 09:56:54;;;;;;;37.77;20.80;;;;;;;17.06;64.57;96665.69;4973123;28;20200;-76
2022/11/05 09:59:26;;;;;;;34.60;20.90;;;;;;;17.21;64.00;96668.91;4972701;28;20214;-76
2022/11/05 10:02:01;;;;;;;31.93;20.67;;;;;;;17.16;63.54;96664.00;4971301;28;20217;-75
2022/11/05 10:04:33;;;;;;;27.03;19.50;;;;;;;17.37;63.31;96669.34;4971503;28;20217;-76
2022/11/05 10:07:04;;;;;;;30.83;18.87;;;;;;;17.37;62.54;96669.34;4973001;28;20185;-75
2022/11/05 10:09:36;;;;;;;31.93;19.43;;;;;;;17.21;62.84;96674.13;4973115;28;20208;-75
2022/11/05 10:12:33;;;;;;;28.00;19.40;;;;;;;17.13;63.16;96664.25;4971263;28;20641;-75
2022/11/05 10:15:26;;;;;;;36.20;21.37;;;;;;;17.09;63.67;96657.56;4954756;28;20207;-76
2022/11/05 10:17:58;;;;;;;30.90;18.57;;;;;;;17.04;63.03;96651.88;4969840;28;20833;-76
2022/11/05 10:20:32;;;;;;;28.57;18.97;;;;;;;16.99;63.10;96661.88;4968265;28;20702;-76
2022/11/05 10:23:20;;;;;;;30.17;18.43;;;;;;;16.17;62.80;96506.09;4969658;28;20209;-75
2022/11/05 10:25:52;;;;;;;27.43;18.70;;;;;;;17.20;62.60;96659.38;4969377;28;20290;-75
2022/11/05 10:28:23;;;;;;;30.17;18.73;;;;;;;17.24;62.03;96659.00;4969492;28;20225;-75
2022/11/05 10:30:56;;;;;;;27.30;17.20;;;;;;;16.82;63.11;96668.38;4969656;28;20194;-75
2022/11/05 10:33:50;;;;;;;25.53;17.40;;;;;;;16.94;62.60;96656.97;4967959;28;20740;-75
2022/11/05 10:36:21;;;;;;;26.17;17.43;;;;;;;17.27;62.02;96650.09;4969939;28;20191;-75
2022/11/05 10:38:49;;;;;;;30.13;17.43;;;;;;;17.37;61.69;96643.19;4966548;28;20685;-76
2022/11/05 10:41:33;;;;;;;29.33;18.90;;;;;;;17.41;61.35;96640.19;4952050;28;20229;-76
2022/11/05 10:44:25;;;;;;;33.80;19.33;;;;;;;17.83;60.32;96655.13;4969991;28;20209;-76
2022/11/05 10:47:28;;;;;;;31.70;17.83;;;;;;;18.11;59.10;96627.50;4967663;28;20198;-76
2022/11/05 10:49:59;;;;;;;24.77;17.20;;;;;;;17.93;60.31;96638.66;4955686;28;20202;-75
2022/11/05 10:52:32;;;;;;;27.80;17.97;;;;;;;18.25;59.34;96636.84;4968103;28;20198;-76
2022/11/05 10:55:04;;;;;;;30.57;17.20;;;;;;;18.05;59.17;96624.56;4969561;28;20196;-76
2022/11/05 10:57:37;;;;;;;27.63;18.50;;;;;;;17.95;59.08;96644.63;4969657;28;20252;-75
2022/11/05 11:00:15;;;;;;;28.40;18.53;;;;;;;17.97;59.54;96629.59;4968965;28;20671;-75
2022/11/05 11:02:46;;;;;;;27.57;18.57;;;;;;;18.03;59.86;96629.94;4969030;28;20585;-75
2022/11/05 11:05:26;;;;;;;26.87;18.20;;;;;;;18.17;59.20;96623.56;4968846;28;20253;-75
2022/11/05 11:08:16;;;;;;;30.73;18.60;;;;;;;18.18;59.03;96626.03;4968800;28;20186;-74
2022/11/05 11:10:53;;;;;;;29.30;17.70;;;;;;;18.17;58.67;96618.31;4969206;28;20201;-75
2022/11/05 11:13:26;;;;;;;32.43;17.73;;;;;;;18.41;57.67;96611.84;4968689;28;20293;-74
2022/11/05 11:15:54;;;;;;;36.73;20.00;;;;;;;18.12;58.91;96610.81;4951265;28;20198;-75
2022/11/05 11:18:26;;;;;;;29.00;17.67;;;;;;;18.12;58.61;96617.84;4968752;28;20201;-74
2022/11/05 11:21:03;;;;;;;31.90;18.97;;;;;;;18.27;58.05;96627.06;4968227;28;20239;-76
2022/11/05 11:23:36;;;;;;;28.87;17.03;;;;;;;17.88;59.16;96607.59;4951395;28;20293;-74
2022/11/05 11:26:04;;;;;;;33.87;18.73;;;;;;;18.16;58.11;96603.53;4967737;28;20261;-75
2022/11/05 11:28:36;;;;;;;26.97;17.27;;;;;;;18.23;58.04;96609.94;4968658;28;20195;-75
2022/11/05 11:31:13;;;;;;;25.80;17.00;;;;;;;18.26;57.20;96607.06;4967742;28;20202;-75
2022/11/05 11:33:43;;;;;;;28.13;18.20;;;;;;;18.24;57.56;96604.56;4965545;28;20206;-74
2022/11/05 11:36:11;;;;;;;27.83;17.73;;;;;;;18.50;57.32;96612.91;4966029;28;20738;-75
2022/11/05 11:38:39;;;;;;;36.70;18.40;;;;;;;18.38;56.83;96590.31;4966916;28;20194;-74
2022/11/05 11:41:29;;;;;;;28.80;16.50;;;;;;;18.29;56.74;96601.56;4968655;28;20233;-75
2022/11/05 11:44:11;;;;;;;32.67;17.90;;;;;;;18.37;56.50;96604.38;4968364;28;20250;-75
2022/11/05 11:46:39;;;;;;;30.50;16.63;;;;;;;18.11;56.60;96598.69;4967038;28;20260;-75
2022/11/05 11:49:43;;;;;;;30.73;17.03;;;;;;;18.36;55.90;96606.16;4968337;28;20202;-74
2022/11/05 11:52:17;;;;;;;27.93;15.77;;;;;;;18.47;55.24;96594.81;4967000;28;20256;-75
2022/11/05 11:54:44;;;;;;;25.37;14.60;;;;;;;18.18;55.79;96591.13;4968414;28;20198;-73
2022/11/05 11:57:23;;;;;;;32.37;16.57;;;;;;;18.41;55.05;96595.28;4968101;28;20674;-75
2022/11/05 11:59:52;;;;;;;23.60;14.77;;;;;;;18.57;54.23;96582.56;4968114;28;20218;-74
2022/11/05 12:02:41;;;;;;;23.87;14.77;;;;;;;18.58;54.69;96584.25;4966849;28;20201;-75
2022/11/05 12:05:29;;;;;;;21.97;13.57;;;;;;;18.53;54.11;96589.88;4967768;28;20187;-75
2022/11/05 12:08:37;;;;;;;21.40;13.70;;;;;;;18.35;54.24;96564.34;4957436;28;20229;-75
2022/11/05 12:11:29;;;;;;;21.13;12.23;;;;;;;18.63;52.63;96593.38;4941457;28;20206;-74
2022/11/05 12:14:11;;;;;;;18.93;12.23;;;;;;;18.82;51.88;96586.56;4966030;28;20665;-74
2022/11/05 12:17:07;;;;;;;21.20;12.13;;;;;;;18.76;51.61;96582.66;4966159;28;20225;-75
2022/11/05 12:19:48;;;;;;;16.43;11.73;;;;;;;18.84;50.94;96598.59;4967518;28;20246;-77
2022/11/05 12:22:25;;;;;;;19.70;11.87;;;;;;;18.90;50.60;96587.56;4966545;28;20201;-74
2022/11/05 12:25:13;;;;;;;25.17;12.17;;;;;;;19.16;49.91;96594.03;4966155;28;20586;-74
2022/11/05 12:27:43;;;;;;;21.27;12.10;;;;;;;19.28;49.26;96577.22;4967231;28;20638;-74
2022/11/05 12:30:16;;;;;;;16.40;11.53;;;;;;;19.42;48.50;96576.84;4966385;28;20302;-74
2022/11/05 12:33:07;;;;;;;14.43;9.67;;;;;;;19.37;48.85;96580.84;4968072;28;20890;-74
2022/11/05 12:35:52;;;;;;;20.23;10.47;;;;;;;19.29;49.08;96583.25;4966256;28;20700;-75
2022/11/05 12:38:51;;;;;;;16.57;11.07;;;;;;;19.21;49.51;96583.94;4966972;28;20241;-75